createdAt,value
2023-03-28T00:01:05.263Z,4.09
2023-03-28T00:04:03.833Z,4.13
2023-03-28T00:07:01.337Z,4.10
2023-03-28T00:09:59.229Z,4.02
2023-03-28T00:12:56.781Z,4.03
2023-03-28T00:15:54.796Z,4.08
2023-03-28T00:18:53.092Z,4.10
2023-03-28T00:21:51.417Z,4.07
2023-03-28T00:24:49.636Z,3.99
2023-03-28T00:27:47.109Z,3.97
2023-03-28T00:30:44.996Z,3.76
2023-03-28T00:33:44.232Z,3.48
2023-03-28T00:36:41.720Z,3.26
2023-03-28T00:39:40.535Z,3.11
2023-03-28T00:42:38.002Z,3.00
2023-03-28T00:45:35.864Z,2.91
2023-03-28T00:48:33.740Z,2.82
2023-03-28T00:51:31.199Z,2.74
2023-03-28T00:54:29.149Z,2.66
2023-03-28T00:57:26.576Z,2.59
2023-03-28T01:00:24.459Z,2.54
2023-03-28T01:03:22.774Z,2.49
2023-03-28T01:06:22.049Z,2.46
2023-03-28T01:09:19.523Z,2.43
2023-03-28T01:12:17.368Z,2.41
2023-03-28T01:15:14.900Z,2.38
2023-03-28T01:18:12.951Z,2.35
2023-03-28T01:21:10.900Z,2.34
2023-03-28T01:24:11.296Z,2.33
2023-03-28T01:27:10.221Z,2.31
2023-03-28T01:30:07.802Z,2.29
2023-03-28T01:33:05.813Z,2.26
2023-03-28T01:36:03.911Z,2.23
2023-03-28T01:39:01.472Z,2.21
2023-03-28T01:41:59.316Z,2.24
2023-03-28T01:44:56.903Z,2.54
2023-03-28T01:47:54.788Z,2.85
2023-03-28T01:50:52.678Z,3.02
2023-03-28T01:53:50.234Z,3.12
2023-03-28T01:56:48.258Z,3.13
2023-03-28T01:59:46.194Z,3.15
2023-03-28T02:02:44.180Z,3.20
2023-03-28T02:05:41.747Z,3.10
2023-03-28T02:08:39.587Z,3.15
2023-03-28T02:11:37.007Z,3.02
2023-03-28T02:14:34.908Z,2.92
2023-03-28T02:17:32.365Z,2.88
2023-03-28T02:20:30.349Z,2.85
2023-03-28T02:23:27.807Z,2.84
2023-03-28T02:26:25.671Z,2.86
2023-03-28T02:29:23.309Z,2.99
2023-03-28T02:32:22.241Z,2.95
2023-03-28T02:35:20.549Z,2.91
2023-03-28T02:38:18.252Z,2.95
2023-03-28T02:41:16.050Z,2.94
2023-03-28T02:44:13.524Z,3.14
2023-03-28T02:47:11.295Z,3.16
2023-03-28T02:50:08.729Z,3.00
2023-03-28T02:53:06.446Z,2.92
2023-03-28T02:56:05.091Z,2.88
2023-03-28T02:59:04.186Z,2.95
2023-03-28T03:02:02.369Z,3.14
2023-03-28T03:05:01.890Z,3.13
2023-03-28T03:07:59.525Z,2.92
2023-03-28T03:10:57.177Z,2.78
2023-03-28T03:13:54.981Z,2.76
2023-03-28T03:16:52.757Z,2.70
2023-03-28T03:19:50.532Z,2.62
2023-03-28T03:22:48.140Z,2.53
2023-03-28T03:25:45.606Z,2.47
2023-03-28T03:28:44.849Z,2.42
2023-03-28T03:31:42.704Z,2.38
2023-03-28T03:34:41.701Z,2.54
2023-03-28T03:37:39.187Z,2.87
2023-03-28T03:40:36.813Z,3.04
2023-03-28T03:43:34.589Z,2.89
2023-03-28T03:46:32.254Z,2.72
2023-03-28T03:49:30.053Z,2.74
2023-03-28T03:52:27.512Z,2.71
2023-03-28T03:55:26.855Z,2.90
2023-03-28T03:58:24.306Z,2.90
2023-03-28T04:01:21.977Z,2.70
2023-03-28T04:04:19.797Z,2.50
2023-03-28T04:07:17.328Z,2.40
2023-03-28T04:10:15.138Z,2.31
2023-03-28T04:13:12.603Z,2.25
2023-03-28T04:16:10.502Z,2.21
2023-03-28T04:19:07.948Z,2.18
2023-03-28T04:22:08.474Z,2.16
2023-03-28T04:25:06.307Z,2.15
2023-03-28T04:28:04.083Z,2.12
2023-03-28T04:31:01.918Z,2.11
2023-03-28T04:34:00.565Z,2.11
2023-03-28T04:37:02.170Z,2.11
2023-03-28T04:40:01.738Z,2.13
2023-03-28T04:42:59.331Z,2.13
2023-03-28T04:45:56.801Z,2.14
2023-03-28T04:48:56.357Z,2.13
2023-03-28T04:51:55.754Z,2.15
2023-03-28T04:54:53.225Z,2.18
2023-03-28T04:57:50.849Z,2.19
2023-03-28T05:00:49.811Z,2.22
2023-03-28T05:03:47.512Z,2.25
2023-03-28T05:06:45.372Z,2.29
2023-03-28T05:09:43.468Z,2.33
2023-03-28T05:12:41.223Z,2.38
2023-03-28T05:15:38.683Z,2.44
2023-03-28T05:18:36.416Z,2.50
2023-03-28T05:21:33.866Z,2.60
2023-03-28T05:24:31.490Z,2.67
2023-03-28T05:27:28.991Z,2.69
2023-03-28T05:30:26.680Z,2.78
2023-03-28T05:33:24.564Z,2.91
2023-03-28T05:36:22.102Z,3.00
2023-03-28T05:39:19.886Z,3.14
2023-03-28T05:42:17.334Z,3.26
2023-03-28T05:45:15.113Z,3.33
2023-03-28T05:48:13.487Z,3.39
2023-03-28T05:51:10.951Z,3.46
2023-03-28T05:54:08.722Z,3.53
2023-03-28T05:57:06.165Z,3.61
2023-03-28T06:00:12.313Z,3.69
2023-03-28T06:03:09.823Z,3.75
2023-03-28T06:06:15.549Z,3.81
2023-03-28T06:09:13.136Z,3.89
2023-03-28T06:12:10.876Z,3.93
2023-03-28T06:15:10.402Z,3.98
2023-03-28T06:18:07.915Z,3.98
2023-03-28T06:21:06.351Z,3.98
2023-03-28T06:24:03.816Z,4.00
2023-03-28T06:27:01.466Z,4.03
2023-03-28T06:30:00.313Z,4.13
2023-03-28T06:32:57.873Z,4.45
2023-03-28T06:35:56.249Z,4.86
2023-03-28T06:38:55.050Z,5.28
2023-03-28T06:41:55.119Z,5.73
2023-03-28T06:44:52.690Z,6.17
2023-03-28T06:47:50.510Z,6.58
2023-03-28T06:50:50.360Z,6.98
2023-03-28T06:53:48.232Z,7.05
2023-03-28T06:56:46.251Z,7.00
2023-03-28T06:59:43.755Z,7.12
2023-03-28T07:02:41.967Z,7.25
2023-03-28T07:05:39.801Z,7.52
2023-03-28T07:08:37.517Z,7.52
2023-03-28T07:11:34.982Z,7.46
2023-03-28T07:14:33.035Z,7.55
2023-03-28T07:17:30.528Z,7.56
2023-03-28T07:20:28.459Z,7.78
2023-03-28T07:23:26.003Z,7.93
2023-03-28T07:26:23.636Z,7.97
2023-03-28T07:29:21.352Z,8.11
2023-03-28T07:32:18.829Z,8.40
2023-03-28T07:35:16.574Z,8.83
2023-03-28T07:38:14.017Z,9.35
2023-03-28T07:41:11.990Z,9.87
2023-03-28T07:44:09.445Z,10.40
2023-03-28T07:47:07.416Z,10.71
2023-03-28T07:50:06.125Z,11.14
2023-03-28T07:53:03.678Z,11.84
2023-03-28T07:56:01.327Z,12.32
2023-03-28T07:58:58.783Z,12.24
2023-03-28T08:01:56.586Z,11.65
2023-03-28T08:04:54.641Z,10.93
2023-03-28T08:07:54.887Z,10.21
2023-03-28T08:10:53.508Z,9.60
2023-03-28T08:13:50.987Z,9.09
2023-03-28T08:16:48.805Z,8.59
2023-03-28T08:19:46.275Z,8.21
2023-03-28T08:22:43.921Z,7.87
2023-03-28T08:25:41.383Z,7.58
2023-03-28T08:28:39.550Z,7.29
2023-03-28T08:31:37.220Z,7.03
2023-03-28T08:34:34.860Z,6.79
2023-03-28T08:37:32.961Z,6.67
2023-03-28T08:40:30.426Z,6.52
2023-03-28T08:43:28.178Z,6.36
2023-03-28T08:46:25.650Z,6.20
2023-03-28T08:49:23.737Z,6.03
2023-03-28T08:52:21.182Z,5.89
2023-03-28T08:55:18.812Z,5.80
2023-03-28T08:58:21.227Z,5.70
2023-03-28T09:01:22.274Z,5.61
2023-03-28T09:04:20.972Z,5.55
2023-03-28T09:07:18.495Z,5.57
2023-03-28T09:10:19.265Z,5.69
2023-03-28T09:13:17.376Z,6.19
2023-03-28T09:16:17.607Z,6.76
2023-03-28T09:19:16.236Z,6.98
2023-03-28T09:22:16.027Z,6.95
2023-03-28T09:25:13.832Z,6.85
2023-03-28T09:28:11.997Z,6.76
2023-03-28T09:31:10.225Z,6.62
2023-03-28T09:34:07.687Z,6.42
2023-03-28T09:37:05.337Z,6.82
2023-03-28T09:40:03.921Z,8.88
2023-03-28T09:43:01.666Z,11.28
2023-03-28T09:46:00.697Z,12.79
2023-03-28T09:48:58.302Z,12.74
2023-03-28T09:51:56.263Z,12.16
2023-03-28T09:54:53.715Z,11.99
2023-03-28T09:57:51.506Z,11.91
2023-03-28T10:00:49.004Z,11.43
2023-03-28T10:03:47.010Z,11.11
2023-03-28T10:06:44.450Z,11.79
2023-03-28T10:09:42.488Z,12.53
2023-03-28T10:12:41.932Z,12.29
2023-03-28T10:15:39.694Z,11.53
2023-03-28T10:18:37.450Z,10.66
2023-03-28T10:21:34.909Z,9.88
2023-03-28T10:24:34.310Z,9.62
2023-03-28T10:27:31.921Z,10.16
2023-03-28T10:30:29.834Z,10.24
2023-03-28T10:33:27.303Z,11.19
2023-03-28T10:36:24.979Z,13.31
2023-03-28T10:39:22.524Z,15.60
2023-03-28T10:42:21.015Z,17.62
2023-03-28T10:45:18.622Z,19.25
2023-03-28T10:48:16.088Z,20.31
2023-03-28T10:51:13.772Z,20.85
2023-03-28T10:54:11.225Z,20.56
2023-03-28T10:57:08.940Z,19.14
2023-03-28T11:00:08.513Z,17.61
2023-03-28T11:03:06.371Z,17.45
2023-03-28T11:06:09.342Z,18.28
2023-03-28T11:09:07.990Z,19.29
2023-03-28T11:12:05.704Z,19.66
2023-03-28T11:15:03.244Z,18.83
2023-03-28T11:18:01.092Z,18.18
2023-03-28T11:20:58.738Z,18.04
2023-03-28T11:23:56.682Z,17.65
2023-03-28T11:27:02.085Z,16.83
2023-03-28T11:30:08.406Z,16.11
2023-03-28T11:33:06.013Z,15.12
2023-03-28T11:36:03.702Z,14.28
2023-03-28T11:39:01.183Z,14.46
2023-03-28T11:41:59.999Z,15.56
2023-03-28T11:44:57.672Z,16.99
2023-03-28T11:47:55.158Z,18.32
2023-03-28T11:50:52.814Z,19.41
2023-03-28T11:53:50.468Z,20.35
2023-03-28T11:56:48.680Z,21.44
2023-03-28T11:59:46.724Z,22.02
2023-03-28T12:02:44.337Z,22.19
2023-03-28T12:05:42.432Z,22.73
2023-03-28T12:08:39.881Z,22.81
2023-03-28T12:11:37.474Z,22.18
2023-03-28T12:14:34.900Z,20.57
2023-03-28T12:17:32.669Z,18.42
2023-03-28T12:20:30.190Z,16.54
2023-03-28T12:23:28.839Z,15.46
2023-03-28T12:26:26.700Z,15.67
2023-03-28T12:29:25.719Z,15.86
2023-03-28T12:32:25.762Z,16.10
2023-03-28T12:35:23.623Z,16.20
2023-03-28T12:38:21.368Z,16.04
2023-03-28T12:41:19.549Z,15.85
2023-03-28T12:44:16.984Z,15.95
2023-03-28T12:47:14.766Z,16.05
2023-03-28T12:50:12.219Z,15.94
2023-03-28T12:53:10.013Z,15.80
2023-03-28T12:56:07.474Z,15.80
2023-03-28T12:59:05.221Z,15.96
2023-03-28T13:02:02.766Z,16.13
2023-03-28T13:05:00.472Z,16.31
2023-03-28T13:07:58.103Z,16.23
2023-03-28T13:10:55.549Z,15.94
2023-03-28T13:13:53.389Z,15.24
2023-03-28T13:16:50.838Z,14.36
2023-03-28T13:19:48.586Z,13.58
2023-03-28T13:22:46.153Z,12.90
2023-03-28T13:25:43.901Z,12.26
2023-03-28T13:28:41.644Z,11.74
2023-03-28T13:31:39.130Z,11.38
2023-03-28T13:34:37.194Z,11.46
2023-03-28T13:37:34.660Z,11.73
2023-03-28T13:40:32.370Z,12.03
2023-03-28T13:43:29.819Z,12.10
2023-03-28T13:46:27.581Z,12.07
2023-03-28T13:49:25.306Z,12.25
2023-03-28T13:52:22.768Z,12.53
2023-03-28T13:55:21.041Z,12.64
2023-03-28T13:58:19.049Z,12.58
2023-03-28T14:01:17.067Z,12.35
2023-03-28T14:04:15.039Z,12.02
2023-03-28T14:07:12.838Z,11.68
2023-03-28T14:10:10.332Z,11.31
2023-03-28T14:13:08.436Z,10.89
2023-03-28T14:16:06.259Z,10.43
2023-03-28T14:19:03.804Z,10.13
2023-03-28T14:22:01.590Z,9.98
2023-03-28T14:24:59.053Z,9.97
2023-03-28T14:27:57.155Z,10.05
2023-03-28T14:30:54.739Z,10.18
2023-03-28T14:33:53.164Z,10.34
2023-03-28T14:36:51.418Z,10.19
2023-03-28T14:39:48.899Z,9.95
2023-03-28T14:42:46.552Z,9.77
2023-03-28T14:45:44.791Z,9.62
2023-03-28T14:48:42.612Z,9.45
2023-03-28T14:51:40.038Z,9.30
2023-03-28T14:54:38.137Z,9.24
2023-03-28T14:57:38.104Z,9.23
2023-03-28T15:00:35.535Z,9.23
2023-03-28T15:03:33.767Z,9.23
2023-03-28T15:06:31.453Z,9.25
2023-03-28T15:09:29.480Z,9.22
2023-03-28T15:12:27.051Z,9.17
2023-03-28T15:15:24.741Z,9.10
2023-03-28T15:18:25.595Z,9.00
2023-03-28T15:21:23.895Z,8.87
2023-03-28T15:24:21.645Z,8.77
2023-03-28T15:27:19.093Z,8.70
2023-03-28T15:30:16.757Z,8.64
2023-03-28T15:33:14.386Z,8.55
2023-03-28T15:36:11.855Z,8.49
2023-03-28T15:39:09.811Z,8.43
2023-03-28T15:42:07.252Z,8.36
2023-03-28T15:45:05.001Z,8.31
2023-03-28T15:48:02.601Z,8.27
2023-03-28T15:51:00.651Z,8.24
2023-03-28T15:53:59.125Z,8.25
2023-03-28T15:56:56.593Z,8.23
2023-03-28T15:59:56.359Z,8.24
2023-03-28T16:02:53.926Z,8.28
2023-03-28T16:05:51.726Z,8.31
2023-03-28T16:08:49.218Z,8.31
2023-03-28T16:11:46.863Z,8.28
2023-03-28T16:14:44.533Z,8.26
2023-03-28T16:17:43.271Z,8.22
2023-03-28T16:20:41.046Z,8.17
2023-03-28T16:23:38.479Z,8.12
2023-03-28T16:26:36.211Z,8.10
2023-03-28T16:29:33.709Z,8.07
2023-03-28T16:32:31.434Z,8.04
2023-03-28T16:35:29.297Z,8.05
2023-03-28T16:38:26.917Z,8.05
2023-03-28T16:41:24.917Z,8.02
2023-03-28T16:44:22.420Z,7.96
2023-03-28T16:47:20.292Z,7.90
2023-03-28T16:50:17.950Z,7.81
2023-03-28T16:53:18.198Z,7.72
2023-03-28T16:56:17.808Z,7.66
2023-03-28T16:59:15.556Z,7.62
2023-03-28T17:02:13.943Z,7.53
2023-03-28T17:05:11.731Z,7.42
2023-03-28T17:08:09.558Z,7.32
2023-03-28T17:11:07.505Z,7.24
2023-03-28T17:14:06.309Z,7.16
2023-03-28T17:17:03.905Z,7.08
2023-03-28T17:20:01.768Z,7.02
2023-03-28T17:22:59.750Z,6.97
2023-03-28T17:25:57.977Z,6.91
2023-03-28T17:28:58.607Z,6.87
2023-03-28T17:31:56.630Z,6.85
2023-03-28T17:34:54.698Z,6.84
2023-03-28T17:37:54.688Z,6.80
2023-03-28T17:40:56.424Z,6.77
2023-03-28T17:43:55.345Z,6.73
2023-03-28T17:46:54.521Z,6.70
2023-03-28T17:49:53.267Z,6.68
2023-03-28T17:52:52.423Z,6.65
2023-03-28T17:55:51.312Z,6.61
2023-03-28T17:58:50.606Z,6.57
2023-03-28T18:01:49.043Z,6.54
2023-03-28T18:04:49.382Z,6.51
2023-03-28T18:07:48.324Z,6.48
2023-03-28T18:10:48.652Z,6.44
2023-03-28T18:13:47.113Z,6.39
2023-03-28T18:16:46.964Z,6.35
2023-03-28T18:19:45.854Z,6.32
2023-03-28T18:22:45.042Z,6.26
2023-03-28T18:25:42.676Z,6.23
2023-03-28T18:28:41.320Z,6.20
2023-03-28T18:31:43.500Z,6.19
2023-03-28T18:34:43.153Z,6.17
2023-03-28T18:37:41.822Z,6.16
2023-03-28T18:40:43.941Z,6.15
2023-03-28T18:43:44.539Z,6.14
2023-03-28T18:46:43.368Z,6.15
2023-03-28T18:49:43.387Z,6.14
2023-03-28T18:52:41.169Z,6.15
2023-03-28T18:55:38.790Z,6.15
2023-03-28T18:58:38.639Z,6.16
2023-03-28T19:01:42.307Z,6.16
2023-03-28T19:04:42.872Z,6.16
2023-03-28T19:07:41.043Z,6.16
2023-03-28T19:10:41.273Z,6.14
2023-03-28T19:13:41.070Z,6.12
2023-03-28T19:16:39.957Z,6.09
2023-03-28T19:19:39.694Z,6.07
2023-03-28T19:22:39.405Z,6.05
2023-03-28T19:25:42.073Z,6.03
2023-03-28T19:28:41.401Z,6.02
2023-03-28T19:31:40.285Z,6.00
2023-03-28T19:34:42.557Z,5.97
2023-03-28T19:37:40.843Z,5.95
2023-03-28T19:40:40.547Z,5.94
2023-03-28T19:43:39.620Z,5.92
2023-03-28T19:46:39.535Z,5.88
2023-03-28T19:49:40.080Z,5.86
2023-03-28T19:52:41.808Z,5.83
2023-03-28T19:55:41.160Z,5.79
2023-03-28T19:58:41.446Z,5.76
2023-03-28T20:01:42.004Z,5.72
2023-03-28T20:04:40.593Z,5.68
2023-03-28T20:07:42.477Z,5.64
2023-03-28T20:10:41.478Z,5.59
2023-03-28T20:13:39.771Z,5.56
2023-03-28T20:16:38.813Z,5.52
2023-03-28T20:19:39.075Z,5.48
2023-03-28T20:22:38.395Z,5.44
2023-03-28T20:25:37.194Z,5.40
2023-03-28T20:28:37.284Z,5.36
2023-03-28T20:31:35.684Z,5.33
2023-03-28T20:34:34.691Z,5.29
2023-03-28T20:37:33.910Z,5.24
2023-03-28T20:40:31.941Z,5.20
2023-03-28T20:43:30.036Z,5.15
2023-03-28T20:46:27.897Z,5.11
2023-03-28T20:49:27.706Z,5.08
2023-03-28T20:52:25.208Z,5.03
2023-03-28T20:55:25.359Z,4.98
2023-03-28T20:58:23.664Z,4.95
2023-03-28T21:01:26.423Z,4.91
2023-03-28T21:04:24.173Z,4.87
2023-03-28T21:07:22.610Z,4.83
2023-03-28T21:10:20.774Z,4.79
2023-03-28T21:13:18.924Z,4.76
2023-03-28T21:16:17.643Z,4.72
2023-03-28T21:19:15.387Z,4.70
2023-03-28T21:22:12.993Z,4.66
2023-03-28T21:25:10.683Z,4.63
2023-03-28T21:28:12.747Z,4.60
2023-03-28T21:31:10.275Z,4.57
2023-03-28T21:34:07.971Z,4.55
2023-03-28T21:37:05.402Z,4.52
2023-03-28T21:40:06.845Z,4.49
2023-03-28T21:43:04.292Z,4.47
2023-03-28T21:46:02.135Z,4.44
2023-03-28T21:48:59.811Z,4.40
2023-03-28T21:51:57.245Z,4.38
2023-03-28T21:54:57.702Z,4.36
2023-03-28T21:57:55.523Z,4.33
2023-03-28T22:00:53.144Z,4.30
2023-03-28T22:03:51.121Z,4.28
2023-03-28T22:06:49.790Z,4.26
2023-03-28T22:09:52.055Z,4.24
2023-03-28T22:12:50.094Z,4.22
2023-03-28T22:15:48.807Z,4.21
2023-03-28T22:18:50.240Z,4.19
2023-03-28T22:21:49.373Z,4.18
2023-03-28T22:24:46.985Z,4.16
2023-03-28T22:27:45.505Z,4.14
2023-03-28T22:30:43.144Z,4.12
2023-03-28T22:33:40.583Z,4.09
2023-03-28T22:36:38.278Z,4.06
2023-03-28T22:39:36.139Z,4.03
2023-03-28T22:42:33.901Z,4.00
2023-03-28T22:45:31.350Z,3.96
2023-03-28T22:48:31.727Z,3.93
2023-03-28T22:51:30.153Z,3.90
2023-03-28T22:54:27.570Z,3.87
2023-03-28T22:57:25.297Z,3.84
2023-03-28T23:00:23.333Z,3.81
2023-03-28T23:03:21.338Z,3.77
2023-03-28T23:06:20.404Z,3.73
2023-03-28T23:09:18.873Z,3.69
2023-03-28T23:12:16.309Z,3.65
2023-03-28T23:15:14.542Z,3.60
2023-03-28T23:18:12.430Z,3.56
2023-03-28T23:21:09.876Z,3.51
2023-03-28T23:24:08.962Z,3.44
2023-03-28T23:27:07.361Z,3.38
2023-03-28T23:30:05.119Z,3.32
2023-03-28T23:33:04.248Z,3.25
2023-03-28T23:36:02.050Z,3.19
2023-03-28T23:38:59.527Z,3.11
2023-03-28T23:41:57.178Z,3.04
2023-03-28T23:44:54.857Z,2.95
2023-03-28T23:47:52.424Z,2.87
2023-03-28T23:50:50.211Z,2.78
2023-03-28T23:53:47.868Z,2.70
2023-03-28T23:56:46.017Z,2.61
2023-03-28T23:59:43.632Z,2.53
